Almagrundet, Sweden

2:59 PM CEST on September 04, 2015 (GMT +0200)
Ingarö | | Change Station
CLOSE
Current Station
Personal Weather Station
Location: Stockholms Län, STOCKHOLMS LäN
Elevation: 115 ft
Nearby Weather Stations

Elev 115 ft 59.25 °N, 18.54 °E | Updated 14 minutes ago

Mostly Cloudy
Mostly Cloudy
64.2 °F
Feels Like 64.2 °F
N
0.7
Wind Variable Wind from NW
Gusts 1.6 mph

Today
High -- | Low -- °F
--% Chance of Precip.
Yesterday
High -- | Low -- °F
Precip. -- in
5:46 AM 7:37 PM
Waning Gibbous, 59% visible
Pressure 29.80 in
Visibility 6.2 miles
Clouds Few 200 ft
Scattered Clouds 3300 ft
Mostly Cloudy 4200 ft
Dew Point 58 °F
Humidity 81%
Rainfall 0.00 in
Snow Depth Not available.
UV 2 out of 12
Pollen Not available.
Air Quality Not available.
Flu Activity Not available.
METAR ESSB 041250Z 32006KT 9999 FEW002 SCT033 BKN042 13/11 Q1009
Pressure 29.80 in
Visibility 6.2 miles
Clouds Few 200 ft
Scattered Clouds 3300 ft
Mostly Cloudy 4200 ft
Dew Point 58 °F
Humidity 81%
Rainfall 0.00 in
Snow Depth Not available.
UV 2 out of 12
Pollen Not available.
Air Quality Not available.
Flu Activity Not available.
METAR ESSB 041250Z 32006KT 9999 FEW002 SCT033 BKN042 13/11 Q1009

10-Day Weather Forecast

×

Almanac

Astronomy

Sep. 04, 2015 Rise Set
Actual Time
Civil Twilight
Nautical Twilight
Astronomical Twilight
Moon
Length of Visible Light
Length of Day
Tomorrow will be .
, % of the Moon is Illuminated

Today's Extremes

Country Highs Country Lows

Community

WunderPhotos

Upload Photos

1,852,174 photos uploaded!

WunderBlogs® & News

Nearby

Air Quality

  Air Quality AQ Index Pollutant
Not available.

Snow Depth

Station Depth Elevation

Earthquake Activity

City Distance Mag. Time & Date
Minimum magnitude displayed is 2.5.

Coastal Water Temperatures

Place Temperature

Stations

Nearby Weather Stations

Station Location Temp. Windchill Dew Point Humidity Wind Precip. Elev Updated Type